Time;durP1;ratioP1;P1;durP2;ratioP2;P2;SDS_P1;SDS_P2;PMS_P1;PMS_P2;Temp;Humidity;BMP_temperature;BMP_pressure;BME280_temperature;BME280_humidity;BME280_pressure;Samples;Min_cycle;Max_cycle;Signal;HPM_P1;HPM_P2
2022/04/13 00:02:34;;;;;;;11.05;6.43;;;;;;;12.46;54.29;101072.34;5031651;28;20064;-79
2022/04/13 00:05:19;;;;;;;14.48;6.00;;;;;;;12.42;54.34;101076.84;5037384;28;20052;-76
2022/04/13 00:08:06;;;;;;;;;;;;;;;12.19;55.34;101067.19;5054452;28;20507;-77
2022/04/13 00:10:51;;;;;;;11.65;6.40;;;;;;;12.11;55.48;101067.94;5054035;28;19920;-78
2022/04/13 00:13:36;;;;;;;9.98;5.07;;;;;;;11.74;56.69;101072.78;5054092;28;20047;-76
2022/04/13 00:16:21;;;;;;;19.92;7.05;;;;;;;11.71;57.11;101070.66;5045446;28;20055;-77
2022/04/13 00:19:06;;;;;;;14.27;5.88;;;;;;;11.70;57.02;101074.50;5059413;28;20523;-78
2022/04/13 00:21:51;;;;;;;10.45;5.03;;;;;;;11.66;57.01;101062.63;5053897;28;20127;-77
2022/04/13 00:24:36;;;;;;;10.93;6.22;;;;;;;11.86;56.60;101067.56;5054064;28;20052;-77
2022/04/13 00:27:21;;;;;;;8.80;5.72;;;;;;;12.08;55.80;101068.59;5046455;28;20052;-77
2022/04/13 00:30:06;;;;;;;12.07;5.78;;;;;;;11.80;57.04;101065.28;5042190;28;20415;-78
2022/04/13 00:32:51;;;;;;;12.55;6.95;;;;;;;11.80;57.46;101066.06;5053427;28;20052;-77
2022/04/13 00:35:37;;;;;;;9.75;5.22;;;;;;;11.87;56.75;101065.63;5054066;28;20052;-77
2022/04/13 00:38:22;;;;;;;15.10;7.40;;;;;;;11.86;56.64;101059.38;5053861;28;20515;-78
2022/04/13 00:41:07;;;;;;;10.07;5.95;;;;;;;11.67;57.10;101061.53;5053776;28;20519;-77
2022/04/13 00:44:09;;;;;;;10.27;5.90;;;;;;;11.69;56.62;101053.81;5043596;28;20052;-77
2022/04/13 00:46:56;;;;;;;15.98;7.32;;;;;;;11.78;56.67;101062.06;5045255;28;20076;-77
2022/04/13 00:49:41;;;;;;;22.88;7.97;;;;;;;11.89;56.21;101053.28;5053080;28;20072;-76
2022/04/13 00:52:27;;;;;;;15.80;6.97;;;;;;;12.02;55.66;101058.94;5046964;28;20048;-78
2022/04/13 00:55:14;;;;;;;19.98;8.13;;;;;;;11.83;55.76;101048.31;5041976;28;20051;-79
2022/04/13 00:58:00;;;;;;;27.60;8.73;;;;;;;11.80;55.94;101052.47;5047292;28;20043;-78
2022/04/13 01:00:50;;;;;;;12.55;6.90;;;;;;;11.78;56.32;101057.44;5043603;28;20068;-78
2022/04/13 01:03:36;;;;;;;19.77;7.20;;;;;;;11.76;55.99;101050.69;5044292;28;20084;-77
2022/04/13 01:06:21;;;;;;;19.45;8.10;;;;;;;11.73;56.26;101049.41;5044392;28;20057;-77
2022/04/13 01:09:06;;;;;;;12.38;5.93;;;;;;;11.68;56.50;101046.78;5046097;28;20048;-77
2022/04/13 01:11:52;;;;;;;15.63;8.13;;;;;;;11.71;56.64;101051.59;5044058;28;20055;-77
2022/04/13 01:14:37;;;;;;;12.77;6.90;;;;;;;11.60;56.94;101050.25;5038859;28;20052;-77
2022/04/13 01:17:22;;;;;;;14.25;5.60;;;;;;;11.67;56.56;101050.63;5051976;28;20056;-77
2022/04/13 01:20:10;;;;;;;12.80;7.95;;;;;;;11.55;56.87;101047.66;5054846;28;20044;-79
2022/04/13 01:22:56;;;;;;;18.05;7.05;;;;;;;11.65;56.45;101050.13;5051723;28;20432;-78
2022/04/13 01:25:49;;;;;;;25.02;7.95;;;;;;;11.52;56.87;101051.03;5051887;28;20116;-76
2022/04/13 01:28:38;;;;;;;14.77;7.35;;;;;;;11.49;57.01;101054.38;5051933;28;20055;-77
2022/04/13 01:31:24;;;;;;;14.10;8.10;;;;;;;11.14;58.03;101053.38;5052170;28;20060;-77
2022/04/13 01:34:10;;;;;;;9.27;5.22;;;;;;;11.04;58.67;101056.34;5052200;28;20055;-76
2022/04/13 01:36:54;;;;;;;8.68;5.47;;;;;;;10.83;59.41;101055.22;5046828;28;20052;-78
2022/04/13 01:39:39;;;;;;;19.95;6.43;;;;;;;11.14;58.09;101054.16;5049774;28;20055;-78
2022/04/13 01:42:24;;;;;;;17.38;7.00;;;;;;;10.94;58.70;101053.88;5053946;28;20048;-77
2022/04/13 01:45:10;;;;;;;9.85;5.50;;;;;;;11.12;58.43;101056.38;5053786;28;20051;-78
2022/04/13 01:47:55;;;;;;;15.05;8.05;;;;;;;11.19;57.80;101055.16;5045838;28;20056;-78
2022/04/13 01:50:40;;;;;;;9.52;4.95;;;;;;;11.22;58.01;101068.16;5055598;28;20088;-77
2022/04/13 01:53:26;;;;;;;15.15;5.85;;;;;;;11.27;57.74;101052.50;5047586;28;20048;-79
2022/04/13 01:56:10;;;;;;;17.10;7.20;;;;;;;11.16;57.81;101062.03;5055919;28;20079;-79
2022/04/13 01:58:55;;;;;;;11.70;4.88;;;;;;;11.06;58.55;101054.13;5053642;28;20522;-78
2022/04/13 02:01:43;;;;;;;9.77;5.13;;;;;;;11.06;58.38;101052.22;5041145;28;20523;-78
2022/04/13 02:04:28;;;;;;;19.58;7.65;;;;;;;10.95;58.94;101058.19;5045531;28;20055;-78
2022/04/13 02:07:14;;;;;;;12.95;5.35;;;;;;;10.86;59.24;101052.72;5047693;28;20063;-77
2022/04/13 02:09:58;;;;;;;11.20;5.75;;;;;;;10.90;58.90;101053.69;5056960;28;20421;-78
2022/04/13 02:12:44;;;;;;;14.20;5.80;;;;;;;10.94;59.20;101053.88;5048851;28;20056;-77
2022/04/13 02:15:29;;;;;;;15.40;7.07;;;;;;;10.92;59.44;101050.66;5041403;28;20506;-77
2022/04/13 02:18:15;;;;;;;19.83;8.13;;;;;;;10.90;59.32;101045.53;5054897;28;20052;-77
2022/04/13 02:20:59;;;;;;;16.05;7.57;;;;;;;10.91;58.91;101049.06;5054688;28;20052;-77
2022/04/13 02:23:46;;;;;;;15.00;6.22;;;;;;;10.79;59.51;101041.44;5054789;28;20507;-76
2022/04/13 02:26:31;;;;;;;14.48;7.05;;;;;;;10.79;59.42;101044.16;5034881;28;20049;-76
2022/04/13 02:29:16;;;;;;;14.75;7.45;;;;;;;10.72;59.78;101052.72;5034707;28;20052;-76
2022/04/13 02:32:02;;;;;;;9.48;5.63;;;;;;;10.62;60.82;101035.84;5034832;28;20044;-76
2022/04/13 02:34:48;;;;;;;26.65;7.25;;;;;;;10.66;60.26;101043.09;5034729;28;20060;-77
2022/04/13 02:37:33;;;;;;;14.30;7.10;;;;;;;10.53;60.72;101038.50;5034621;28;20060;-76
2022/04/13 02:40:19;;;;;;;17.17;5.85;;;;;;;10.65;60.45;101035.25;5034620;28;20507;-77
2022/04/13 02:43:04;;;;;;;13.80;7.40;;;;;;;10.58;60.80;101037.56;5026275;28;20048;-76
2022/04/13 02:45:50;;;;;;;17.65;7.50;;;;;;;10.70;60.87;101026.97;5026207;28;20416;-77
2022/04/13 02:48:34;;;;;;;16.85;7.10;;;;;;;10.69;60.60;101028.06;5026076;28;20052;-76
2022/04/13 02:51:19;;;;;;;10.82;5.40;;;;;;;10.77;60.28;101024.59;5026085;28;20048;-77
2022/04/13 02:54:05;;;;;;;16.02;6.50;;;;;;;10.52;61.20;101020.56;5034374;28;20048;-76
2022/04/13 02:56:49;;;;;;;20.15;6.70;;;;;;;10.23;61.95;101023.69;5026485;28;20049;-77
2022/04/13 02:59:34;;;;;;;12.52;8.13;;;;;;;10.39;61.68;101020.63;5035097;28;20511;-78
2022/04/13 03:02:19;;;;;;;12.00;6.03;;;;;;;10.28;62.39;101018.13;5035085;28;20056;-76
2022/04/13 03:05:04;;;;;;;15.43;5.68;;;;;;;10.44;61.97;101017.78;5020826;28;20404;-77
2022/04/13 03:07:49;;;;;;;13.70;7.22;;;;;;;10.43;61.58;101016.19;5025841;28;20504;-76
2022/04/13 03:10:34;;;;;;;9.95;5.32;;;;;;;10.44;62.29;101018.59;5034364;28;20048;-76
2022/04/13 03:13:20;;;;;;;10.35;5.40;;;;;;;10.47;61.74;101011.72;5026265;28;20052;-78
2022/04/13 03:16:06;;;;;;;12.43;5.88;;;;;;;10.40;62.05;101012.16;5035117;28;20056;-75
2022/04/13 03:18:50;;;;;;;12.00;6.85;;;;;;;10.47;62.06;101017.97;5035646;28;20056;-78
2022/04/13 03:21:35;;;;;;;15.65;6.38;;;;;;;10.59;60.75;101015.53;5035573;28;20053;-77
2022/04/13 03:24:22;;;;;;;25.08;8.32;;;;;;;10.46;61.41;101013.66;5034129;28;20056;-77
2022/04/13 03:27:06;;;;;;;15.68;7.25;;;;;;;10.50;61.70;101006.50;5025342;28;20059;-77
2022/04/13 03:29:51;;;;;;;14.18;6.05;;;;;;;10.55;61.59;101014.53;5025220;28;20072;-77
2022/04/13 03:32:37;;;;;;;16.60;6.05;;;;;;;10.63;61.22;101021.16;5033681;28;20045;-76
2022/04/13 03:35:23;;;;;;;15.95;8.50;;;;;;;10.57;60.55;101011.50;5033456;28;20060;-76
2022/04/13 03:38:07;;;;;;;22.60;8.65;;;;;;;10.77;60.64;101013.72;5033482;28;20520;-76
2022/04/13 03:40:53;;;;;;;9.00;5.53;;;;;;;10.29;62.28;101010.78;5033721;28;20045;-76
2022/04/13 03:43:38;;;;;;;12.40;6.15;;;;;;;10.38;61.59;101019.00;5023923;28;20045;-77
2022/04/13 03:46:22;;;;;;;13.20;6.38;;;;;;;10.42;61.60;101017.28;5033493;28;20056;-76
2022/04/13 03:49:08;;;;;;;12.25;6.70;;;;;;;10.40;61.97;101012.16;5050764;28;20056;-77
2022/04/13 03:51:52;;;;;;;12.38;6.40;;;;;;;10.41;61.80;101018.41;5053237;28;20056;-75
2022/04/13 03:54:38;;;;;;;13.93;6.47;;;;;;;10.44;61.46;101015.06;5041717;28;20048;-77
2022/04/13 03:57:22;;;;;;;11.32;7.55;;;;;;;10.22;62.59;101022.06;5053213;28;20507;-76
2022/04/13 04:00:09;;;;;;;12.65;6.35;;;;;;;10.19;62.48;101017.25;5052989;28;20067;-77
2022/04/13 04:02:59;;;;;;;12.95;8.25;;;;;;;10.44;61.27;101012.34;5053274;28;20044;-76
2022/04/13 04:05:45;;;;;;;13.57;6.22;;;;;;;10.25;61.83;101013.31;5053086;28;20103;-76
2022/04/13 04:08:32;;;;;;;12.75;6.30;;;;;;;10.32;62.17;101014.78;5052844;28;20048;-76
2022/04/13 04:11:17;;;;;;;13.85;8.52;;;;;;;10.47;61.66;101019.88;5044316;28;20055;-76
2022/04/13 04:14:02;;;;;;;13.68;8.45;;;;;;;10.33;62.07;101009.06;5042328;28;20076;-78
2022/04/13 04:16:47;;;;;;;12.50;6.85;;;;;;;10.40;62.00;101027.69;5053003;28;20052;-75
2022/04/13 04:19:32;;;;;;;10.45;6.50;;;;;;;10.47;61.76;101033.47;5052584;28;20048;-76
2022/04/13 04:22:17;;;;;;;13.65;6.07;;;;;;;10.32;61.58;101031.09;5034392;28;20053;-76
2022/04/13 04:25:04;;;;;;;16.58;6.13;;;;;;;10.23;61.79;101034.53;5018868;28;20492;-77
2022/04/13 04:27:49;;;;;;;16.65;8.00;;;;;;;10.28;61.88;101034.44;5024309;28;20048;-76
2022/04/13 04:30:33;;;;;;;20.48;8.60;;;;;;;10.22;61.94;101038.38;5024300;28;20052;-76
2022/04/13 04:33:18;;;;;;;18.13;9.55;;;;;;;10.22;61.72;101038.38;5032431;28;20053;-76
2022/04/13 04:36:03;;;;;;;10.70;6.30;;;;;;;10.11;61.82;101042.38;5032425;28;20053;-76
2022/04/13 04:38:48;;;;;;;12.68;6.93;;;;;;;10.11;61.88;101042.38;5048929;28;20073;-75
2022/04/13 04:41:33;;;;;;;13.65;7.05;;;;;;;10.20;61.68;101040.59;5043874;28;20052;-75
2022/04/13 04:44:18;;;;;;;17.38;9.07;;;;;;;10.35;61.33;101044.09;5052365;28;20052;-75
2022/04/13 04:47:04;;;;;;;16.55;8.00;;;;;;;10.26;61.49;101047.53;5052513;28;20052;-77
2022/04/13 04:49:48;;;;;;;17.77;5.90;;;;;;;10.27;61.55;101046.41;5052008;28;20052;-77
2022/04/13 04:52:33;;;;;;;15.70;7.10;;;;;;;10.32;61.69;101058.28;5052076;28;20055;-76
2022/04/13 04:55:19;;;;;;;17.20;8.35;;;;;;;10.51;61.09;101056.25;5032264;28;20052;-76
2022/04/13 04:58:04;;;;;;;13.95;8.73;;;;;;;10.52;61.07;101057.84;5032224;28;20052;-77
2022/04/13 05:00:49;;;;;;;17.02;6.68;;;;;;;10.55;60.77;101057.25;5019910;28;20405;-74
2022/04/13 05:03:34;;;;;;;15.27;6.82;;;;;;;10.62;60.70;101060.31;5036621;28;20053;-72
2022/04/13 05:06:27;;;;;;;17.55;6.90;;;;;;;10.64;60.56;101053.47;5031945;28;20048;-73
2022/04/13 05:09:12;;;;;;;16.65;8.10;;;;;;;10.84;60.18;101060.34;5031609;28;20072;-73
2022/04/13 05:11:57;;;;;;;13.02;7.65;;;;;;;11.00;59.48;101058.88;5045521;28;20044;-73
2022/04/13 05:14:42;;;;;;;17.55;9.07;;;;;;;11.02;59.91;101059.34;5051933;28;20052;-75
2022/04/13 05:17:27;;;;;;;15.68;8.48;;;;;;;11.05;59.88;101061.47;5045137;28;20067;-73
2022/04/13 05:20:12;;;;;;;17.15;8.60;;;;;;;11.35;58.67;101062.63;5038160;28;20055;-73
2022/04/13 05:22:56;;;;;;;48.92;9.98;;;;;;;11.41;58.59;101068.75;5051710;28;20044;-72
2022/04/13 05:25:42;;;;;;;15.82;7.47;;;;;;;11.32;58.77;101065.19;5043429;28;20052;-73
2022/04/13 05:28:27;;;;;;;14.02;7.97;;;;;;;11.27;59.15;101068.84;5051469;28;20044;-72
2022/04/13 05:31:12;;;;;;;;;;;;;;;11.41;58.55;101074.19;5051886;28;20048;-72
2022/04/13 05:33:56;;;;;;;17.52;10.00;;;;;;;11.54;58.02;101068.66;5041386;28;19913;-73
2022/04/13 05:36:42;;;;;;;20.20;10.63;;;;;;;11.60;58.22;101077.50;5055625;28;20049;-73
2022/04/13 05:39:26;;;;;;;16.48;8.60;;;;;;;11.63;58.23;101076.09;5055029;28;20037;-73
2022/04/13 05:42:11;;;;;;;26.48;9.23;;;;;;;11.83;57.72;101084.53;5053484;28;20526;-73
2022/04/13 05:44:57;;;;;;;20.45;8.43;;;;;;;11.75;57.70;101085.28;5060556;28;20052;-73
2022/04/13 05:47:44;;;;;;;47.67;12.10;;;;;;;11.81;57.94;101096.84;5045213;28;20412;-73
2022/04/13 05:50:28;;;;;;;22.48;13.05;;;;;;;11.83;58.00;101091.91;5044340;28;20041;-73
2022/04/13 05:53:13;;;;;;;27.60;13.38;;;;;;;12.08;57.06;101096.66;5035501;28;20477;-73
2022/04/13 05:55:58;;;;;;;17.98;9.55;;;;;;;12.29;56.79;101086.75;5035412;28;20041;-74
2022/04/13 05:58:43;;;;;;;17.30;9.40;;;;;;;12.52;55.77;101098.34;5027050;28;20511;-73
2022/04/13 06:01:28;;;;;;;19.20;9.27;;;;;;;12.85;54.99;101107.69;5094944;22;20052;-82
2022/04/13 06:04:13;;;;;;;27.08;12.73;;;;;;;13.03;54.58;101113.16;5091551;28;20047;-84
2022/04/13 06:06:59;;;;;;;16.38;9.45;;;;;;;13.03;54.54;101115.88;5101214;28;20036;-84
2022/04/13 06:09:44;;;;;;;25.45;11.63;;;;;;;13.27;54.04;101114.28;5110004;28;20408;-82
2022/04/13 06:12:29;;;;;;;28.63;12.70;;;;;;;13.94;52.71;101127.31;5081563;28;20417;-83
2022/04/13 06:15:14;;;;;;;15.27;8.77;;;;;;;14.90;49.98;101131.13;5098679;28;20040;-83
2022/04/13 06:17:59;;;;;;;21.58;12.43;;;;;;;15.84;47.21;101137.69;5101302;28;20051;-82
2022/04/13 06:20:45;;;;;;;19.23;12.18;;;;;;;16.61;45.41;101133.94;5095023;28;20040;-83
2022/04/13 06:23:30;;;;;;;20.08;12.93;;;;;;;16.86;44.40;101144.91;5095362;28;20044;-84
2022/04/13 06:26:14;;;;;;;27.77;13.37;;;;;;;16.84;44.38;101134.25;5095229;28;20048;-82
2022/04/13 06:28:59;;;;;;;;;;;;;;;17.49;42.95;101148.69;5086744;28;20294;-84
2022/04/13 06:31:43;;;;;;;24.90;12.68;;;;;;;18.48;40.34;101147.72;5094237;28;20300;-87
2022/04/13 06:34:28;;;;;;;15.20;8.60;;;;;;;19.53;38.06;101143.72;5113160;28;20039;-86
2022/04/13 06:37:13;;;;;;;21.17;11.75;;;;;;;20.35;36.26;101151.50;5102336;28;20055;-84
2022/04/13 06:39:58;;;;;;;;;;;;;;;20.53;35.73;101156.47;5101998;28;20040;-84
2022/04/13 06:42:43;;;;;;;19.38;11.75;;;;;;;20.44;35.42;101152.03;5097685;28;19912;-83
2022/04/13 06:45:27;;;;;;;;;;;;;;;20.98;34.70;101156.34;5090800;28;20048;-85
2022/04/13 06:48:12;;;;;;;21.15;11.98;;;;;;;21.50;33.85;101155.44;5099179;28;19912;-84
2022/04/13 06:50:57;;;;;;;;;;;;;;;20.63;35.45;101169.66;5095276;28;20427;-83
2022/04/13 06:53:43;;;;;;;17.02;9.32;;;;;;;20.63;35.18;101172.41;5095740;28;19912;-81
2022/04/13 06:56:27;;;;;;;;;;;;;;;21.52;33.83;101171.66;5094839;28;20051;-86
2022/04/13 06:59:12;;;;;;;18.85;12.52;;;;;;;22.80;31.54;101160.56;5084547;28;19912;-82
2022/04/13 07:01:56;;;;;;;18.98;12.55;;;;;;;24.06;29.62;101168.94;5072629;28;20036;-84
2022/04/13 07:04:41;;;;;;;24.05;12.20;;;;;;;24.46;28.50;101174.13;5078517;28;20049;-85
2022/04/13 07:07:26;;;;;;;25.13;12.15;;;;;;;23.18;30.65;101181.38;5075163;28;20424;-83
2022/04/13 07:10:10;;;;;;;20.80;12.25;;;;;;;22.97;31.46;101167.38;5074019;28;20041;-84
2022/04/13 07:12:56;;;;;;;19.98;12.65;;;;;;;23.14;31.42;101171.44;5075266;28;20041;-85
2022/04/13 07:15:41;;;;;;;19.40;12.13;;;;;;;22.97;31.30;101168.19;5081665;28;20048;-83
2022/04/13 07:18:25;;;;;;;18.73;11.18;;;;;;;23.03;31.78;101174.16;5080242;28;20044;-84
2022/04/13 07:21:10;;;;;;;24.20;11.85;;;;;;;23.26;30.80;101171.88;5079137;28;20036;-85
2022/04/13 07:23:56;;;;;;;19.42;11.90;;;;;;;22.99;31.42;101171.38;5098117;28;20523;-81
2022/04/13 07:26:40;;;;;;;16.80;11.85;;;;;;;22.88;31.53;101175.25;5102380;28;20047;-78
2022/04/13 07:29:25;;;;;;;18.13;11.57;;;;;;;21.99;33.25;101174.53;5110887;28;20047;-80
2022/04/13 07:32:11;;;;;;;22.23;11.15;;;;;;;25.48;28.08;101175.84;5097377;28;20040;-87
2022/04/13 07:35:00;;;;;;;28.08;12.27;;;;;;;26.05;26.50;101186.69;5115569;28;20040;-82
2022/04/13 07:37:47;;;;;;;25.48;11.25;;;;;;;26.75;26.13;101195.66;5111896;28;20044;-84
2022/04/13 07:40:39;;;;;;;23.50;10.98;;;;;;;27.08;25.07;101194.91;5102220;28;20044;-87
2022/04/13 07:43:30;;;;;;;18.55;9.80;;;;;;;27.31;24.98;101199.84;5101724;28;20035;-83
2022/04/13 07:46:21;;;;;;;15.70;9.50;;;;;;;25.63;27.63;101187.72;5096825;28;20043;-86
2022/04/13 07:49:12;;;;;;;21.58;10.10;;;;;;;25.97;27.17;101187.91;5122888;28;20051;-86
2022/04/13 07:52:02;;;;;;;21.80;10.60;;;;;;;23.00;31.75;101192.38;5128887;28;20036;-82
2022/04/13 07:54:54;;;;;;;17.33;10.02;;;;;;;26.76;26.25;101186.09;5121542;28;20235;-83
2022/04/13 07:57:42;;;;;;;19.63;9.70;;;;;;;27.36;24.94;101185.41;5103395;28;20036;-86
2022/04/13 08:00:27;;;;;;;16.77;10.43;;;;;;;29.84;22.08;101214.69;5108138;28;20070;-85
2022/04/13 08:03:12;;;;;;;20.83;10.38;;;;;;;29.31;22.33;101205.41;5109645;28;20032;-86
2022/04/13 08:05:57;;;;;;;21.13;8.95;;;;;;;28.89;22.99;101204.22;5108564;28;20044;-86
2022/04/13 08:08:42;;;;;;;24.55;11.38;;;;;;;27.78;24.57;101206.44;5110680;28;20043;-89
2022/04/13 08:11:27;;;;;;;15.75;9.80;;;;;;;30.31;21.37;101192.75;5107281;28;20060;-86
2022/04/13 08:14:13;;;;;;;18.23;8.68;;;;;;;29.41;22.34;101206.41;5106144;28;20043;-87
2022/04/13 08:16:57;;;;;;;19.75;9.55;;;;;;;29.54;22.12;101204.53;5106901;28;20051;-84
2022/04/13 08:19:44;;;;;;;19.98;9.50;;;;;;;31.16;20.21;101207.34;5100795;28;20039;-87
2022/04/13 08:22:28;;;;;;;16.08;9.30;;;;;;;33.64;17.53;101213.16;5106015;28;20422;-86
2022/04/13 08:25:14;;;;;;;17.52;9.32;;;;;;;35.23;16.31;101211.34;5102552;28;20050;-86
2022/04/13 08:27:58;;;;;;;16.65;9.23;;;;;;;34.35;16.96;101216.75;5096542;28;20538;-87
2022/04/13 08:30:43;;;;;;;12.77;7.88;;;;;;;33.58;17.54;101208.56;5104300;28;20051;-88
2022/04/13 08:33:28;;;;;;;24.55;10.02;;;;;;;33.97;16.65;101205.03;5106106;28;20058;-87
2022/04/13 08:36:14;;;;;;;13.35;8.88;;;;;;;31.60;19.51;101196.44;5105027;28;20040;-88
2022/04/13 08:38:59;;;;;;;20.02;8.80;;;;;;;33.31;17.72;101206.38;5108045;28;20051;-87
2022/04/13 08:41:44;;;;;;;15.98;8.77;;;;;;;32.39;18.61;101220.88;5105079;28;20039;-83
2022/04/13 08:44:40;;;;;;;18.85;8.48;;;;;;;32.86;18.10;101213.25;5105272;28;20063;-86
2022/04/13 08:47:25;;;;;;;17.60;9.27;;;;;;;33.12;18.01;101213.13;5109695;28;20106;-85
2022/04/13 08:50:12;;;;;;;12.55;8.85;;;;;;;32.92;18.09;101222.66;5102887;28;20051;-86
2022/04/13 08:53:04;;;;;;;24.98;9.13;;;;;;;34.86;16.04;101230.34;5100755;28;20055;-84
2022/04/13 08:55:53;;;;;;;20.30;9.48;;;;;;;34.93;15.94;101218.72;5101809;28;20416;-86
2022/04/13 08:58:47;;;;;;;17.08;9.50;;;;;;;34.96;15.74;101217.78;5102224;28;20051;-86
2022/04/13 09:01:41;;;;;;;17.73;8.23;;;;;;;32.39;18.36;101223.69;5104282;28;20039;-85
2022/04/13 09:04:30;;;;;;;18.08;9.23;;;;;;;35.04;15.82;101221.09;5103599;28;20051;-86
2022/04/13 09:07:17;;;;;;;16.73;9.20;;;;;;;31.88;18.70;101214.47;5104778;28;20051;-85
2022/04/13 09:10:04;;;;;;;21.33;9.50;;;;;;;33.66;17.49;101219.13;5108032;28;20047;-86
2022/04/13 09:12:51;;;;;;;15.45;8.65;;;;;;;35.48;15.65;101222.28;5103635;28;20047;-85
2022/04/13 09:15:41;;;;;;;18.90;9.95;;;;;;;33.48;16.92;101222.63;5101617;28;20047;-85
2022/04/13 09:18:26;;;;;;;19.17;10.27;;;;;;;37.06;14.33;101231.84;5107403;28;20054;-85
2022/04/13 09:21:17;;;;;;;24.08;9.73;;;;;;;32.65;18.23;101222.44;5101447;28;20044;-87
2022/04/13 09:24:07;;;;;;;20.67;9.00;;;;;;;36.51;14.79;101230.69;5102113;28;20349;-86
2022/04/13 09:26:53;;;;;;;19.25;8.27;;;;;;;34.80;15.90;101225.78;5103069;28;20051;-81
2022/04/13 09:29:38;;;;;;;33.80;9.07;;;;;;;35.94;14.91;101225.78;5086319;28;20047;-81
2022/04/13 09:32:23;;;;;;;16.65;8.45;;;;;;;36.00;14.87;101229.53;5102405;28;20047;-84
2022/04/13 09:35:09;;;;;;;11.52;7.60;;;;;;;34.85;15.68;101217.47;5093121;28;20048;-86
2022/04/13 09:37:55;;;;;;;14.88;6.88;;;;;;;33.86;16.47;101210.31;5103082;28;20051;-85
2022/04/13 09:40:41;;;;;;;12.02;7.40;;;;;;;34.44;15.57;101209.56;5104587;28;20039;-82
2022/04/13 09:43:26;;;;;;;14.60;7.15;;;;;;;32.08;17.90;101210.19;5110602;28;20038;-88
2022/04/13 09:46:27;;;;;;;14.55;7.30;;;;;;;36.58;14.28;101211.25;5114104;28;20101;-87
2022/04/13 09:49:14;;;;;;;12.95;7.72;;;;;;;34.69;15.45;101198.78;5120142;28;20047;-81
2022/04/13 09:52:00;;;;;;;16.77;7.20;;;;;;;35.72;14.89;101205.41;5117517;28;20047;-85
2022/04/13 09:54:46;;;;;;;11.88;6.95;;;;;;;36.97;13.64;101214.91;5120778;28;20050;-86
2022/04/13 09:57:31;;;;;;;18.83;6.28;;;;;;;33.43;16.50;101197.03;5084028;28;20512;-84
2022/04/13 10:00:17;;;;;;;11.82;7.10;;;;;;;34.92;14.64;101205.84;5118012;28;20054;-85
2022/04/13 10:03:08;;;;;;;11.75;7.25;;;;;;;35.38;14.85;101209.44;5111971;28;20051;-85
2022/04/13 10:05:58;;;;;;;15.52;6.25;;;;;;;38.78;12.06;101205.41;5107985;28;20051;-83
2022/04/13 10:08:58;;;;;;;10.25;6.35;;;;;;;35.95;13.71;101195.41;5125403;28;20043;-92
2022/04/13 10:11:58;;;;;;;15.20;7.15;;;;;;;36.96;13.39;101199.16;5086840;28;20044;-89
2022/04/13 10:14:44;;;;;;;14.55;7.07;;;;;;;38.86;12.09;101202.91;5091962;28;20043;-89
2022/04/13 10:17:33;;;;;;;10.63;6.03;;;;;;;36.89;13.01;101190.22;5091120;28;20067;-89
2022/04/13 10:20:18;;;;;;;17.40;6.50;;;;;;;35.46;14.33;101188.00;5096170;28;20039;-90
2022/04/13 10:23:03;;;;;;;13.63;6.93;;;;;;;36.74;13.45;101193.03;5101840;28;20554;-89
2022/04/13 10:25:48;;;;;;;11.25;7.13;;;;;;;38.45;11.92;101190.78;5107269;28;20054;-89
2022/04/13 10:28:33;;;;;;;11.95;6.85;;;;;;;39.63;10.79;101188.66;5106833;28;20118;-89
2022/04/13 10:31:17;;;;;;;13.35;7.85;;;;;;;38.59;12.02;101187.09;5099541;28;20043;-87
2022/04/13 10:34:02;;;;;;;13.95;6.95;;;;;;;37.79;12.49;101182.84;5098945;28;20059;-88
2022/04/13 10:36:47;;;;;;;11.77;7.25;;;;;;;35.78;14.19;101180.84;5128861;28;20058;-87
2022/04/13 10:39:33;;;;;;;11.85;7.63;;;;;;;37.74;12.61;101172.19;5133266;28;20050;-88
2022/04/13 10:42:19;;;;;;;12.48;6.30;;;;;;;40.17;10.69;101181.03;5130959;28;20506;-87
2022/04/13 10:45:06;;;;;;;12.50;7.20;;;;;;;35.56;13.75;101168.97;5109110;28;20527;-88
2022/04/13 10:48:01;;;;;;;9.93;6.78;;;;;;;39.90;10.54;101178.00;5107637;28;20047;-89
2022/04/13 10:50:45;;;;;;;15.13;6.80;;;;;;;42.30;9.70;101174.28;5099052;28;20055;-88
2022/04/13 10:53:41;;;;;;;12.07;5.93;;;;;;;40.86;10.01;101157.97;5097609;28;20055;-87
2022/04/13 10:56:30;;;;;;;21.98;6.68;;;;;;;36.81;12.95;101159.44;5100693;28;20047;-88
2022/04/13 10:59:32;;;;;;;12.50;6.32;;;;;;;38.37;11.60;101158.34;5116398;28;20046;-86
2022/04/13 11:02:38;;;;;;;16.40;6.95;;;;;;;37.88;12.28;101153.53;5086533;28;20055;-86
2022/04/13 11:05:25;;;;;;;12.02;7.20;;;;;;;40.08;10.36;101151.94;5094182;28;20043;-84
2022/04/13 11:08:28;;;;;;;10.05;6.82;;;;;;;40.73;10.06;101160.53;5093596;28;20419;-85
2022/04/13 11:11:26;;;;;;;11.00;7.10;;;;;;;41.21;9.49;101164.00;5090323;28;20048;-85
2022/04/13 11:14:19;;;;;;;9.68;6.53;;;;;;;41.16;9.78;101164.78;5103120;28;20047;-86
2022/04/13 11:17:06;;;;;;;8.38;6.10;;;;;;;40.09;10.19;101170.59;5097614;28;20051;-85
2022/04/13 11:20:16;;;;;;;11.35;6.78;;;;;;;42.17;9.26;101166.22;5096383;28;20047;-85
2022/04/13 11:23:13;;;;;;;12.95;7.75;;;;;;;38.85;10.70;101153.78;5092048;28;20039;-88
2022/04/13 11:26:01;;;;;;;12.40;6.53;;;;;;;40.83;9.96;101154.09;5095186;28;20055;-88
2022/04/13 11:29:09;;;;;;;11.88;6.78;;;;;;;38.11;11.28;101144.06;5099086;28;20108;-86
2022/04/13 11:31:59;;;;;;;10.50;6.70;;;;;;;42.73;8.64;101153.78;5085261;28;20047;-90
2022/04/13 11:34:50;;;;;;;21.40;7.22;;;;;;;39.73;10.39;101141.59;5080750;28;20043;-88
2022/04/13 11:37:35;;;;;;;10.07;6.57;;;;;;;38.06;11.62;101141.94;5073497;28;20051;-87
2022/04/13 11:40:22;;;;;;;12.23;7.28;;;;;;;32.94;15.30;101124.38;5079415;28;20043;-86
2022/04/13 11:43:10;;;;;;;10.98;6.90;;;;;;;38.21;11.03;101124.81;5081371;28;20056;-88
2022/04/13 11:45:54;;;;;;;13.20;7.85;;;;;;;37.47;11.52;101129.91;5094980;28;20523;-90
2022/04/13 11:48:39;;;;;;;11.95;7.53;;;;;;;35.55;13.27;101128.59;5093733;28;20054;-87
2022/04/13 11:51:30;;;;;;;13.55;6.38;;;;;;;38.20;11.24;101124.03;5105788;28;20054;-88
2022/04/13 11:54:15;;;;;;;14.23;6.70;;;;;;;37.80;11.55;101119.06;5119609;28;20432;-85
2022/04/13 11:57:00;;;;;;;9.32;6.38;;;;;;;36.94;12.57;101127.16;5123386;28;20152;-86
2022/04/13 11:59:47;;;;;;;11.85;6.18;;;;;;;38.49;11.01;101120.28;5123503;28;20065;-86
2022/04/13 12:02:33;;;;;;;10.73;6.15;;;;;;;35.17;13.51;101112.22;5117806;28;20059;-89
2022/04/13 12:05:18;;;;;;;12.93;7.43;;;;;;;35.13;13.19;101110.78;5108681;28;20511;-84
2022/04/13 12:08:10;;;;;;;10.73;6.90;;;;;;;33.61;14.91;101112.53;5110375;28;20042;-87
2022/04/13 12:10:59;;;;;;;34.60;7.80;;;;;;;36.24;12.58;101121.16;5096791;28;20055;-84
2022/04/13 12:13:52;;;;;;;13.27;7.10;;;;;;;35.81;12.85;101119.69;5099537;28;20047;-86
2022/04/13 12:16:41;;;;;;;12.68;6.22;;;;;;;37.13;11.72;101118.00;5103267;28;20059;-83
2022/04/13 12:19:37;;;;;;;12.05;6.57;;;;;;;37.05;11.96;101113.97;5106026;28;20046;-83
2022/04/13 12:22:22;;;;;;;16.13;6.72;;;;;;;35.33;12.76;101113.88;5098830;28;20047;-82
2022/04/13 12:25:08;;;;;;;11.90;7.60;;;;;;;34.28;13.31;101106.13;5104966;28;20239;-84
2022/04/13 12:28:04;;;;;;;10.18;6.05;;;;;;;37.31;11.42;101116.22;5117569;28;20062;-86
2022/04/13 12:31:01;;;;;;;11.88;6.57;;;;;;;38.06;10.62;101111.47;5114145;28;20042;-86
2022/04/13 12:33:45;;;;;;;10.32;6.00;;;;;;;36.05;11.85;101108.34;5073938;28;20440;-83
2022/04/13 12:36:30;;;;;;;14.32;6.43;;;;;;;34.66;13.02;101100.78;5092996;28;20047;-84
2022/04/13 12:39:15;;;;;;;12.85;5.88;;;;;;;35.79;11.66;101111.66;5093346;28;20043;-80
2022/04/13 12:42:04;;;;;;;16.48;6.85;;;;;;;37.31;10.55;101090.69;5083727;23;20075;-78
2022/04/13 12:44:48;;;;;;;15.57;6.45;;;;;;;38.21;9.56;101099.22;5076113;28;20060;-78
2022/04/13 12:47:43;;;;;;;14.68;7.10;;;;;;;36.98;10.83;101091.66;5052586;28;20051;-76
2022/04/13 12:50:28;;;;;;;12.45;7.30;;;;;;;36.73;11.13;101083.75;5047329;28;20064;-78